Time;durP1;ratioP1;P1;durP2;ratioP2;P2;SDS_P1;SDS_P2;PMS_P1;PMS_P2;Temp;Humidity;BMP_temperature;BMP_pressure;BME280_temperature;BME280_humidity;BME280_pressure;Samples;Min_cycle;Max_cycle;Signal;HPM_P1;HPM_P2
2022/09/17 00:02:01;;;;;;;21.27;3.33;;;12.70;99.90;;;;;;7390269;19;20014;-80
2022/09/17 00:04:27;;;;;;;15.95;3.08;;;12.70;99.90;;;;;;7392557;19;20007;-81
2022/09/17 00:06:53;;;;;;;15.45;2.92;;;12.70;99.90;;;;;;7392357;19;20034;-81
2022/09/17 00:09:19;;;;;;;17.90;3.28;;;12.60;99.90;;;;;;7390803;19;20014;-80
2022/09/17 00:11:46;;;;;;;19.55;3.10;;;12.60;99.90;;;;;;7390475;19;20062;-80
2022/09/17 00:14:14;;;;;;;19.10;3.00;;;12.60;99.90;;;;;;7391998;19;20018;-80
2022/09/17 00:16:43;;;;;;;23.30;3.90;;;12.50;99.90;;;;;;7390499;19;20006;-79
2022/09/17 00:19:15;;;;;;;20.58;3.88;;;12.50;99.90;;;;;;7390890;19;20019;-78
2022/09/17 00:21:41;;;;;;;17.17;2.87;;;12.40;99.90;;;;;;7390577;19;20091;-80
2022/09/17 00:24:07;;;;;;;18.70;2.80;;;12.40;99.90;;;;;;7391892;19;20014;-81
2022/09/17 00:26:34;;;;;;;17.30;3.10;;;12.40;99.90;;;;;;7391894;19;20015;-80
2022/09/17 00:29:00;;;;;;;17.60;2.90;;;12.40;99.90;;;;;;7392088;19;20475;-80
2022/09/17 00:31:27;;;;;;;17.35;2.95;;;12.30;99.90;;;;;;7392200;19;20022;-80
2022/09/17 00:33:53;;;;;;;16.77;2.20;;;12.50;99.90;;;;;;7391573;19;20014;-80
2022/09/17 00:36:20;;;;;;;34.17;3.22;;;12.50;99.90;;;;;;7394634;19;20010;-81
2022/09/17 00:38:54;;;;;;;13.13;2.53;;;12.50;99.90;;;;;;7390503;19;20014;-80
2022/09/17 00:41:21;;;;;;;17.95;2.53;;;12.50;99.90;;;;;;7390450;19;20110;-79
2022/09/17 00:43:53;;;;;;;14.07;2.50;;;12.50;99.90;;;;;;7391382;19;20007;-80
2022/09/17 00:46:24;;;;;;;13.63;2.50;;;12.50;99.90;;;;;;7391261;19;20017;-80
2022/09/17 00:48:55;;;;;;;16.73;2.53;;;12.50;99.90;;;;;;7391162;19;20475;-80
2022/09/17 00:51:36;;;;;;;14.93;2.63;;;12.50;99.90;;;;;;7397271;19;20015;-80
2022/09/17 00:54:05;;;;;;;14.60;2.65;;;12.60;99.90;;;;;;7398447;19;20417;-80
2022/09/17 00:56:34;;;;;;;14.45;2.55;;;12.50;99.90;;;;;;7398483;19;20021;-80
2022/09/17 00:59:02;;;;;;;13.43;2.55;;;12.50;99.90;;;;;;7398386;19;20399;-80
2022/09/17 01:01:29;;;;;;;16.02;2.40;;;12.40;99.90;;;;;;7397028;19;20014;-80
2022/09/17 01:03:56;;;;;;;18.92;3.30;;;12.40;99.90;;;;;;7398769;19;20011;-80
2022/09/17 01:06:36;;;;;;;15.40;2.30;;;12.40;99.90;;;;;;7398220;19;20011;-79
2022/09/17 01:09:15;;;;;;;15.50;2.47;;;12.60;99.90;;;;;;7398295;19;20484;-79
2022/09/17 01:11:44;;;;;;;19.02;2.88;;;12.60;99.90;;;;;;7396541;19;20038;-79
2022/09/17 01:14:16;;;;;;;16.52;2.63;;;12.60;99.90;;;;;;7398058;19;20010;-79
2022/09/17 01:16:58;;;;;;;17.48;2.53;;;12.60;99.90;;;;;;7396898;19;20010;-80
2022/09/17 01:19:47;;;;;;;16.15;2.65;;;12.60;99.90;;;;;;7397191;19;20011;-79
2022/09/17 01:22:43;;;;;;;20.17;2.60;;;12.50;99.90;;;;;;7395264;19;20006;-79
2022/09/17 01:25:25;;;;;;;14.88;3.15;;;12.50;99.90;;;;;;7398012;19;20024;-79
2022/09/17 01:28:19;;;;;;;17.20;2.83;;;12.40;99.90;;;;;;7397810;19;20018;-79
2022/09/17 01:30:59;;;;;;;18.45;2.83;;;12.40;99.90;;;;;;7395629;19;20007;-80
2022/09/17 01:33:46;;;;;;;17.63;2.67;;;12.40;99.90;;;;;;7397669;19;20018;-80
2022/09/17 01:36:57;;;;;;;16.27;3.20;;;12.30;99.90;;;;;;7400780;19;20007;-80
2022/09/17 01:39:32;;;;;;;18.98;2.80;;;12.20;99.90;;;;;;7396686;19;20018;-79
2022/09/17 01:42:01;;;;;;;17.75;3.10;;;12.20;99.90;;;;;;7395029;19;20085;-80
2022/09/17 01:44:54;;;;;;;16.45;2.97;;;12.20;99.90;;;;;;7397199;19;20356;-78
2022/09/17 01:47:29;;;;;;;17.05;3.10;;;12.20;99.90;;;;;;7396927;19;20011;-79
2022/09/17 01:50:01;;;;;;;16.40;2.70;;;12.20;99.90;;;;;;7397017;19;20520;-80
2022/09/17 01:52:30;;;;;;;17.37;3.40;;;12.20;99.90;;;;;;7395439;19;20015;-80
2022/09/17 01:55:02;;;;;;;12.27;2.08;;;12.20;99.90;;;;;;7396510;19;20348;-79
2022/09/17 01:57:39;;;;;;;13.27;2.33;;;12.10;99.90;;;;;;7397025;19;20038;-80
2022/09/17 02:00:12;;;;;;;13.90;2.22;;;12.10;99.90;;;;;;7396615;19;20388;-80
2022/09/17 02:02:53;;;;;;;10.55;2.00;;;12.10;99.90;;;;;;7393370;19;20007;-80
2022/09/17 02:05:33;;;;;;;12.90;2.88;;;12.10;99.90;;;;;;7395174;19;20322;-80
2022/09/17 02:08:13;;;;;;;13.15;2.38;;;12.10;99.90;;;;;;7396534;19;20019;-80
2022/09/17 02:10:46;;;;;;;16.33;2.60;;;12.10;99.90;;;;;;7396127;19;20010;-80
2022/09/17 02:13:32;;;;;;;16.27;2.80;;;12.20;99.90;;;;;;7396271;19;20007;-79
2022/09/17 02:16:07;;;;;;;11.30;2.40;;;12.20;99.90;;;;;;7393649;19;20019;-79
2022/09/17 02:19:12;;;;;;;18.05;2.90;;;12.20;99.90;;;;;;7395224;19;20014;-79
2022/09/17 02:21:37;;;;;;;12.85;2.65;;;12.20;99.90;;;;;;7394537;19;20018;-80
2022/09/17 02:24:16;;;;;;;17.08;3.13;;;12.20;99.90;;;;;;7395896;19;20014;-79
2022/09/17 02:26:49;;;;;;;14.73;2.58;;;12.10;99.90;;;;;;7395576;19;20094;-79
2022/09/17 02:29:41;;;;;;;18.77;3.00;;;12.00;99.90;;;;;;7395559;19;20022;-79
2022/09/17 02:32:07;;;;;;;16.88;2.75;;;12.00;99.90;;;;;;7395544;19;20073;-79
2022/09/17 02:34:34;;;;;;;17.83;2.55;;;12.00;99.90;;;;;;7396865;19;20476;-79
2022/09/17 02:37:00;;;;;;;16.20;3.08;;;12.00;99.90;;;;;;7395298;19;20071;-80
2022/09/17 02:39:27;;;;;;;14.63;2.35;;;12.00;99.90;;;;;;7395270;19;20007;-80
2022/09/17 02:42:04;;;;;;;17.75;2.90;;;11.90;99.90;;;;;;7393446;19;20021;-80
2022/09/17 02:45:07;;;;;;;15.55;2.55;;;11.90;99.90;;;;;;7395441;19;20007;-81
2022/09/17 02:48:01;;;;;;;18.55;2.45;;;11.80;99.90;;;;;;7393201;19;20518;-79
2022/09/17 02:50:45;;;;;;;14.95;2.47;;;11.80;99.90;;;;;;7393392;19;20475;-80
2022/09/17 02:53:27;;;;;;;15.80;2.40;;;11.90;99.90;;;;;;7394601;19;20014;-80
2022/09/17 02:56:17;;;;;;;13.57;2.35;;;11.80;99.90;;;;;;7395079;19;20018;-80
2022/09/17 02:58:45;;;;;;;13.50;2.70;;;11.80;99.90;;;;;;7393433;19;20030;-80
2022/09/17 03:01:34;;;;;;;14.05;2.78;;;11.80;99.90;;;;;;7393324;19;20026;-80
2022/09/17 03:04:03;;;;;;;13.48;3.08;;;11.70;99.90;;;;;;7394446;19;20498;-80
2022/09/17 03:06:29;;;;;;;14.40;2.75;;;11.70;99.90;;;;;;7394432;19;20019;-80
2022/09/17 03:08:56;;;;;;;18.50;2.70;;;11.60;99.90;;;;;;7394773;19;20021;-80
2022/09/17 03:11:22;;;;;;;14.75;2.05;;;11.60;99.90;;;;;;7392925;19;20448;-81
2022/09/17 03:13:48;;;;;;;16.30;2.70;;;11.50;99.90;;;;;;7390116;19;20029;-80
2022/09/17 03:16:14;;;;;;;14.80;2.70;;;11.50;99.90;;;;;;7393135;19;20070;-81
2022/09/17 03:18:40;;;;;;;17.45;2.80;;;11.50;99.90;;;;;;7391791;19;20018;-80
2022/09/17 03:21:06;;;;;;;16.00;2.20;;;11.60;99.90;;;;;;7393067;19;20006;-80
2022/09/17 03:23:32;;;;;;;10.90;2.25;;;11.70;99.90;;;;;;7392559;19;20070;-81
2022/09/17 03:25:59;;;;;;;15.63;2.95;;;11.70;99.90;;;;;;7394283;19;20404;-80
2022/09/17 03:28:25;;;;;;;12.07;2.30;;;11.70;99.90;;;;;;7392619;19;20369;-80
2022/09/17 03:30:52;;;;;;;17.70;3.20;;;11.60;99.90;;;;;;7393951;19;20086;-79
2022/09/17 03:33:18;;;;;;;13.70;2.55;;;11.70;99.90;;;;;;7394658;19;20028;-79
2022/09/17 03:35:45;;;;;;;15.40;2.40;;;11.60;99.90;;;;;;7392294;19;20006;-81
2022/09/17 03:38:12;;;;;;;16.42;3.03;;;11.70;99.90;;;;;;7393903;19;20010;-79
2022/09/17 03:40:39;;;;;;;15.07;2.38;;;11.80;99.90;;;;;;7392787;19;20017;-80
2022/09/17 03:43:05;;;;;;;14.88;2.72;;;11.80;99.90;;;;;;7392289;19;20007;-79
2022/09/17 03:45:31;;;;;;;13.95;2.20;;;12.00;99.90;;;;;;7392393;19;20476;-80
2022/09/17 03:47:57;;;;;;;13.13;2.40;;;12.10;99.90;;;;;;7392820;19;20085;-80
2022/09/17 03:50:23;;;;;;;14.48;2.38;;;12.20;99.90;;;;;;7393275;19;20021;-80
2022/09/17 03:52:49;;;;;;;12.82;2.20;;;12.20;99.90;;;;;;7392917;19;20010;-80
2022/09/17 03:55:16;;;;;;;18.77;2.90;;;12.20;99.90;;;;;;7391498;19;20038;-80
2022/09/17 03:57:42;;;;;;;18.25;2.80;;;12.20;99.90;;;;;;7393250;19;20014;-80
2022/09/17 04:00:08;;;;;;;13.27;2.60;;;12.20;99.90;;;;;;7392715;19;20017;-80
2022/09/17 04:02:34;;;;;;;15.00;2.58;;;12.10;99.90;;;;;;7391594;19;20015;-80
2022/09/17 04:05:00;;;;;;;15.73;2.70;;;12.10;99.90;;;;;;7392730;19;20819;-80
2022/09/17 04:07:26;;;;;;;15.25;2.50;;;12.00;99.90;;;;;;7392792;19;20015;-80
2022/09/17 04:09:52;;;;;;;15.30;2.50;;;11.90;99.90;;;;;;7392977;19;20018;-80
2022/09/17 04:12:17;;;;;;;10.80;2.10;;;11.90;99.90;;;;;;7392620;19;20015;-80
2022/09/17 04:14:43;;;;;;;11.45;2.47;;;12.00;99.90;;;;;;7392401;19;20357;-80
2022/09/17 04:17:11;;;;;;;15.43;2.75;;;12.10;99.90;;;;;;7390373;19;20006;-80
2022/09/17 04:19:36;;;;;;;15.98;2.72;;;12.10;99.90;;;;;;7391246;19;20337;-80
2022/09/17 04:22:02;;;;;;;16.65;2.80;;;12.00;99.90;;;;;;7389103;19;20018;-80
2022/09/17 04:24:28;;;;;;;14.57;2.80;;;11.90;99.90;;;;;;7392934;19;20031;-81
2022/09/17 04:26:54;;;;;;;18.40;2.53;;;11.90;99.90;;;;;;7400045;19;20018;-80
2022/09/17 04:29:20;;;;;;;11.88;2.10;;;12.00;99.90;;;;;;7398241;19;20352;-81
2022/09/17 04:31:46;;;;;;;10.93;1.98;;;12.00;99.90;;;;;;7398008;19;20018;-80
2022/09/17 04:34:12;;;;;;;15.43;2.20;;;12.00;99.90;;;;;;7401861;19;20010;-81
2022/09/17 04:36:37;;;;;;;12.45;2.78;;;12.00;99.90;;;;;;7397936;19;20019;-80
2022/09/17 04:39:03;;;;;;;16.15;2.33;;;12.00;99.90;;;;;;7397810;19;20015;-80
2022/09/17 04:41:29;;;;;;;12.30;2.30;;;12.10;99.90;;;;;;7396698;19;20021;-80
2022/09/17 04:43:55;;;;;;;14.35;2.05;;;12.00;99.90;;;;;;7399516;19;20010;-80
2022/09/17 04:46:20;;;;;;;10.90;2.30;;;11.90;99.90;;;;;;7397584;19;20399;-80
2022/09/17 04:48:46;;;;;;;13.40;2.33;;;12.00;99.90;;;;;;7397109;19;20015;-80
2022/09/17 04:51:12;;;;;;;15.82;2.63;;;12.00;99.90;;;;;;7397774;19;20011;-80
2022/09/17 04:53:38;;;;;;;16.40;2.63;;;11.90;99.90;;;;;;7399151;19;20377;-80
2022/09/17 04:56:04;;;;;;;18.10;2.70;;;11.80;99.90;;;;;;7399002;19;20010;-80
2022/09/17 04:58:31;;;;;;;13.10;2.35;;;11.90;99.90;;;;;;7397408;19;20011;-80
2022/09/17 05:00:57;;;;;;;9.45;1.52;;;11.80;99.90;;;;;;7396133;19;20025;-79
2022/09/17 05:03:23;;;;;;;10.25;1.67;;;11.70;99.90;;;;;;7398868;19;20475;-80
2022/09/17 05:05:49;;;;;;;8.63;1.90;;;11.50;99.90;;;;;;7398428;19;20424;-80
2022/09/17 05:08:15;;;;;;;9.07;1.60;;;11.40;99.90;;;;;;7399427;19;20011;-78
2022/09/17 05:10:40;;;;;;;13.18;2.40;;;11.30;99.90;;;;;;7399394;19;20074;-80
2022/09/17 05:13:06;;;;;;;12.05;1.88;;;11.20;99.90;;;;;;7397148;19;20018;-80
2022/09/17 05:15:32;;;;;;;13.75;2.38;;;11.20;99.90;;;;;;7397327;19;20451;-81
2022/09/17 05:17:59;;;;;;;11.73;1.98;;;11.30;99.90;;;;;;7397767;19;20484;-80
2022/09/17 05:20:25;;;;;;;13.65;2.13;;;11.20;99.90;;;;;;7395777;19;20026;-80
2022/09/17 05:22:51;;;;;;;16.05;2.55;;;11.30;99.90;;;;;;7398713;19;20006;-80
2022/09/17 05:25:22;;;;;;;12.75;1.95;;;11.40;99.90;;;;;;7396596;19;20344;-80
2022/09/17 05:27:49;;;;;;;8.85;2.00;;;11.50;99.90;;;;;;7397787;19;20037;-79
2022/09/17 05:30:15;;;;;;;7.85;2.00;;;11.60;99.90;;;;;;7397520;19;20359;-80
2022/09/17 05:32:41;;;;;;;11.73;2.10;;;11.70;99.90;;;;;;7396800;19;20015;-81
2022/09/17 05:35:08;;;;;;;10.18;1.75;;;11.80;99.90;;;;;;7396842;19;20022;-80
2022/09/17 05:37:35;;;;;;;11.02;1.92;;;11.80;99.90;;;;;;7395151;19;20022;-80
2022/09/17 05:40:04;;;;;;;9.05;1.70;;;11.70;99.90;;;;;;7396258;19;20014;-80
2022/09/17 05:42:30;;;;;;;14.98;2.15;;;11.70;99.90;;;;;;7395144;19;20007;-80
2022/09/17 05:44:56;;;;;;;14.77;1.90;;;11.80;99.90;;;;;;7398208;19;20093;-79
2022/09/17 05:47:22;;;;;;;13.35;2.58;;;11.80;99.90;;;;;;7396967;19;20471;-80
2022/09/17 05:49:48;;;;;;;10.18;2.10;;;11.80;99.90;;;;;;7395344;19;20031;-80
2022/09/17 05:52:13;;;;;;;16.90;2.47;;;11.70;99.90;;;;;;7397315;19;20032;-80
2022/09/17 05:54:39;;;;;;;11.63;2.05;;;11.70;99.90;;;;;;7395390;19;20014;-80
2022/09/17 05:57:05;;;;;;;13.45;2.33;;;11.70;99.90;;;;;;7396805;19;20015;-80
2022/09/17 05:59:31;;;;;;;14.15;3.15;;;11.70;99.90;;;;;;7396113;19;20034;-80
2022/09/17 06:01:56;;;;;;;12.60;2.22;;;11.70;99.90;;;;;;7393470;19;20482;-80
2022/09/17 06:04:22;;;;;;;14.57;2.55;;;11.60;99.90;;;;;;7396527;19;20031;-80
2022/09/17 06:06:48;;;;;;;12.77;2.28;;;11.60;99.90;;;;;;7396415;19;20017;-80
2022/09/17 06:09:14;;;;;;;17.55;2.60;;;11.60;99.90;;;;;;7394838;19;20017;-80
2022/09/17 06:11:40;;;;;;;13.95;2.10;;;11.60;99.90;;;;;;7394715;19;20023;-80
2022/09/17 06:14:06;;;;;;;11.75;1.85;;;11.80;99.90;;;;;;7396505;19;20014;-80
2022/09/17 06:16:31;;;;;;;9.63;2.28;;;11.80;99.90;;;;;;7392822;19;20018;-80
2022/09/17 06:18:58;;;;;;;11.55;2.00;;;11.80;99.90;;;;;;7393520;19;20078;-80
2022/09/17 06:21:24;;;;;;;15.93;2.22;;;12.00;99.90;;;;;;7393109;19;20018;-80
2022/09/17 06:23:50;;;;;;;8.65;1.95;;;12.10;99.90;;;;;;7396260;19;20011;-80
2022/09/17 06:26:16;;;;;;;12.55;2.10;;;12.10;99.90;;;;;;7395871;19;20030;-80
2022/09/17 06:28:42;;;;;;;11.23;2.42;;;12.20;99.90;;;;;;7394527;19;20628;-80
2022/09/17 06:31:10;;;;;;;13.82;2.40;;;12.30;99.90;;;;;;7394542;19;20010;-80
2022/09/17 06:33:36;;;;;;;14.10;2.38;;;12.40;99.90;;;;;;7398543;19;20014;-81
2022/09/17 06:36:06;;;;;;;12.27;2.47;;;12.60;99.90;;;;;;7396076;19;20021;-81
2022/09/17 06:38:33;;;;;;;11.27;2.25;;;12.60;99.90;;;;;;7395591;19;20011;-80
2022/09/17 06:41:00;;;;;;;9.32;2.10;;;12.90;99.90;;;;;;7395002;19;20007;-80
2022/09/17 06:43:27;;;;;;;8.45;1.65;;;13.30;99.90;;;;;;7395535;19;20495;-79
2022/09/17 06:45:56;;;;;;;13.27;2.08;;;13.40;99.90;;;;;;7393302;19;20035;-80
2022/09/17 06:48:23;;;;;;;10.30;2.40;;;13.60;99.90;;;;;;7394368;19;20074;-80
2022/09/17 06:50:50;;;;;;;10.82;2.58;;;13.60;99.90;;;;;;7395337;19;20011;-80
2022/09/17 06:53:16;;;;;;;11.52;2.00;;;13.50;99.90;;;;;;7394707;19;20471;-80
2022/09/17 06:55:42;;;;;;;15.43;2.30;;;13.30;99.90;;;;;;7393312;19;20098;-80
2022/09/17 06:58:08;;;;;;;17.25;2.90;;;13.20;99.90;;;;;;7392963;19;20011;-80
2022/09/17 07:00:35;;;;;;;9.30;1.70;;;13.20;99.90;;;;;;7393478;19;20022;-79
2022/09/17 07:03:01;;;;;;;9.25;1.80;;;13.30;99.90;;;;;;7393786;19;20006;-79
2022/09/17 07:05:28;;;;;;;12.80;2.55;;;13.40;99.90;;;;;;7393301;19;20010;-79
2022/09/17 07:07:54;;;;;;;9.32;2.08;;;13.70;99.90;;;;;;7393541;19;20034;-79
2022/09/17 07:10:22;;;;;;;12.65;2.42;;;14.10;99.90;;;;;;7394276;19;20372;-80
2022/09/17 07:12:48;;;;;;;11.98;2.05;;;14.80;99.90;;;;;;7394249;19;20034;-79
2022/09/17 07:15:14;;;;;;;9.65;2.00;;;14.60;99.90;;;;;;7392734;19;20047;-80
2022/09/17 07:17:43;;;;;;;16.85;2.35;;;14.50;99.90;;;;;;7393433;19;20006;-79
2022/09/17 07:20:10;;;;;;;9.68;2.03;;;14.30;99.90;;;;;;7393107;19;20089;-79
2022/09/17 07:22:36;;;;;;;16.45;2.50;;;15.20;99.90;;;;;;7393926;19;20495;-78
2022/09/17 07:25:03;;;;;;;16.75;2.00;;;16.50;99.90;;;;;;7394348;19;20077;-79
2022/09/17 07:27:30;;;;;;;9.20;1.70;;;17.40;99.90;;;;;;7393670;19;20007;-80
2022/09/17 07:29:56;;;;;;;13.13;2.28;;;18.00;99.90;;;;;;7394064;19;20479;-80
2022/09/17 07:32:22;;;;;;;8.05;1.80;;;18.10;99.90;;;;;;7393982;19;20007;-81
2022/09/17 07:34:48;;;;;;;9.57;1.83;;;18.60;99.90;;;;;;7393775;19;20015;-80
2022/09/17 07:37:15;;;;;;;12.10;2.10;;;18.90;99.90;;;;;;7393671;19;20017;-80
2022/09/17 07:39:41;;;;;;;12.38;2.10;;;19.10;99.90;;;;;;7391871;19;20007;-80
2022/09/17 07:42:08;;;;;;;8.43;1.42;;;19.50;99.90;;;;;;7390489;19;20020;-80
2022/09/17 07:44:33;;;;;;;13.93;2.40;;;19.80;99.90;;;;;;7393381;19;20502;-80
2022/09/17 07:46:59;;;;;;;11.98;2.00;;;20.10;99.90;;;;;;7392926;19;20015;-80
2022/09/17 07:49:25;;;;;;;8.80;1.70;;;20.00;99.90;;;;;;7393251;19;20015;-80
2022/09/17 07:51:51;;;;;;;12.25;1.92;;;19.70;99.90;;;;;;7393178;19;20034;-80
2022/09/17 07:54:17;;;;;;;12.68;2.30;;;18.50;99.90;;;;;;7392837;19;20034;-80
2022/09/17 07:56:43;;;;;;;11.82;1.83;;;17.50;99.90;;;;;;7392276;19;20015;-80
2022/09/17 07:59:09;;;;;;;12.38;2.35;;;16.60;99.90;;;;;;7393327;19;20074;-80
2022/09/17 08:01:35;;;;;;;12.10;2.25;;;15.80;99.90;;;;;;7398519;19;20491;-80
2022/09/17 08:04:02;;;;;;;11.73;2.20;;;15.40;99.90;;;;;;7400974;19;20032;-80
2022/09/17 08:06:28;;;;;;;15.18;2.30;;;15.50;99.90;;;;;;7399048;19;20416;-80
2022/09/17 08:09:01;;;;;;;10.77;2.53;;;15.20;99.90;;;;;;7399742;19;20070;-79
2022/09/17 08:11:29;;;;;;;10.45;1.67;;;15.00;99.90;;;;;;7399263;19;20006;-79
2022/09/17 08:13:54;;;;;;;9.93;1.67;;;15.10;99.90;;;;;;7398691;19;20085;-80
2022/09/17 08:16:22;;;;;;;5.97;1.30;;;14.90;99.90;;;;;;7396577;19;20020;-79
2022/09/17 08:18:53;;;;;;;6.30;0.98;;;14.90;99.90;;;;;;7399105;19;20026;-80
2022/09/17 08:21:20;;;;;;;6.32;1.25;;;14.70;99.90;;;;;;7397418;19;20021;-79
2022/09/17 08:23:46;;;;;;;4.35;0.88;;;14.50;99.90;;;;;;7400320;19;20017;-80
2022/09/17 08:26:14;;;;;;;6.63;0.77;;;14.20;99.90;;;;;;7400246;19;20006;-80
2022/09/17 08:28:54;;;;;;;5.07;0.90;;;14.10;99.90;;;;;;7399834;19;20010;-80
2022/09/17 08:31:21;;;;;;;6.55;1.17;;;13.90;99.90;;;;;;7400347;19;20372;-80
2022/09/17 08:33:47;;;;;;;5.50;1.10;;;13.90;99.90;;;;;;7399864;19;20007;-80
2022/09/17 08:36:15;;;;;;;6.55;1.25;;;13.90;99.90;;;;;;7399453;19;20034;-80
2022/09/17 08:38:41;;;;;;;7.32;1.42;;;13.80;99.90;;;;;;7399387;19;20014;-80
2022/09/17 08:41:13;;;;;;;5.65;1.02;;;13.70;99.90;;;;;;7398173;19;20016;-80
2022/09/17 08:43:47;;;;;;;5.43;1.20;;;13.70;99.90;;;;;;7399414;19;20098;-80
2022/09/17 08:46:12;;;;;;;6.00;0.95;;;13.80;99.90;;;;;;7399150;19;20007;-80
2022/09/17 08:48:46;;;;;;;6.57;1.20;;;13.80;99.90;;;;;;7398756;19;20038;-80
2022/09/17 08:51:47;;;;;;;7.10;1.10;;;13.90;99.90;;;;;;7399713;19;20070;-80
2022/09/17 08:54:31;;;;;;;8.38;1.40;;;14.30;99.90;;;;;;7397918;19;20011;-80
2022/09/17 08:57:12;;;;;;;6.07;1.27;;;14.50;99.90;;;;;;7398604;19;20035;-80
2022/09/17 08:59:59;;;;;;;7.55;1.40;;;14.80;99.90;;;;;;7399029;19;20513;-80
2022/09/17 09:02:48;;;;;;;6.40;1.52;;;14.90;99.90;;;;;;7396287;19;20022;-80
2022/09/17 09:05:29;;;;;;;7.68;1.50;;;15.10;99.90;;;;;;7398603;19;20483;-80
2022/09/17 09:08:03;;;;;;;11.23;1.67;;;15.30;99.90;;;;;;7398687;19;20002;-80
2022/09/17 09:10:48;;;;;;;11.02;1.60;;;15.50;99.90;;;;;;7397019;19;20015;-81
2022/09/17 09:13:17;;;;;;;12.45;1.90;;;15.60;99.90;;;;;;7398106;19;20499;-80
2022/09/17 09:15:47;;;;;;;11.07;1.95;;;15.70;99.90;;;;;;7397570;19;20010;-80
2022/09/17 09:18:24;;;;;;;14.18;2.17;;;15.90;99.90;;;;;;7397157;19;20352;-79
2022/09/17 09:20:50;;;;;;;11.65;2.03;;;15.90;99.90;;;;;;7396285;19;20073;-80
2022/09/17 09:23:22;;;;;;;13.65;2.28;;;15.90;99.90;;;;;;7398089;19;20045;-80
2022/09/17 09:26:01;;;;;;;9.02;1.80;;;15.80;99.90;;;;;;7397858;19;20387;-80
2022/09/17 09:28:46;;;;;;;11.82;2.13;;;15.60;99.90;;;;;;7397976;19;20083;-80
2022/09/17 09:31:53;;;;;;;9.35;1.77;;;15.60;99.90;;;;;;7397518;19;20471;-80
2022/09/17 09:34:19;;;;;;;14.80;2.40;;;15.70;99.90;;;;;;7397533;19;20010;-79
2022/09/17 09:36:46;;;;;;;10.48;1.70;;;15.80;99.90;;;;;;7397413;19;20356;-79
2022/09/17 09:39:22;;;;;;;11.70;2.30;;;15.90;99.90;;;;;;7395838;19;20094;-81
2022/09/17 09:41:50;;;;;;;7.75;1.67;;;16.10;99.90;;;;;;7396004;19;20035;-80
2022/09/17 09:44:17;;;;;;;11.30;2.22;;;16.10;99.90;;;;;;7396121;19;20486;-81
2022/09/17 09:46:56;;;;;;;13.30;2.80;;;16.10;99.90;;;;;;7395275;19;20014;-80
2022/09/17 09:49:50;;;;;;;12.95;2.22;;;16.10;99.90;;;;;;7395164;19;20349;-80
2022/09/17 09:52:37;;;;;;;12.20;2.10;;;16.10;99.90;;;;;;7396947;19;20003;-80
2022/09/17 09:55:49;;;;;;;11.85;2.10;;;16.30;99.90;;;;;;7396550;19;20555;-80
2022/09/17 09:58:33;;;;;;;11.55;1.92;;;16.30;99.90;;;;;;7397009;19;20011;-81
2022/09/17 10:00:59;;;;;;;11.65;1.90;;;16.40;99.90;;;;;;7396894;19;20011;-81
2022/09/17 10:03:33;;;;;;;12.75;2.65;;;16.50;99.90;;;;;;7396682;19;20030;-80
2022/09/17 10:06:00;;;;;;;11.85;2.25;;;16.70;99.90;;;;;;7396693;19;20014;-80
2022/09/17 10:08:32;;;;;;;13.45;1.85;;;16.50;99.90;;;;;;7396618;19;20011;-80
2022/09/17 10:11:17;;;;;;;13.82;2.30;;;16.30;99.90;;;;;;7396366;19;20014;-79
2022/09/17 10:13:43;;;;;;;12.48;2.70;;;16.50;99.90;;;;;;7396962;19;20007;-80
2022/09/17 10:16:21;;;;;;;13.80;2.38;;;16.60;99.90;;;;;;7394161;19;20021;-80
2022/09/17 10:18:50;;;;;;;18.75;3.05;;;16.70;99.90;;;;;;7396248;19;20035;-80
2022/09/17 10:21:29;;;;;;;11.32;2.35;;;16.70;99.90;;;;;;7395641;19;20007;-80
2022/09/17 10:23:56;;;;;;;10.70;1.98;;;16.70;99.90;;;;;;7393595;19;20508;-79
2022/09/17 10:26:40;;;;;;;12.43;2.22;;;16.70;97.50;;;;;;7394100;19;20514;-80
2022/09/17 10:29:15;;;;;;;10.38;2.05;;;16.70;97.30;;;;;;7395945;19;20042;-80
2022/09/17 10:31:55;;;;;;;10.77;2.78;;;16.80;98.00;;;;;;7398870;19;20527;-80
2022/09/17 10:34:26;;;;;;;13.68;1.98;;;16.90;98.00;;;;;;7395800;19;20368;-79
2022/09/17 10:36:54;;;;;;;12.13;2.83;;;16.90;98.60;;;;;;7393806;19;20010;-80
2022/09/17 10:39:32;;;;;;;9.73;1.90;;;17.10;98.70;;;;;;7395233;19;20011;-81
2022/09/17 10:42:16;;;;;;;16.05;2.70;;;17.10;98.60;;;;;;7393919;19;20010;-80
2022/09/17 10:44:55;;;;;;;;;;;17.20;98.60;;;;;;7395911;19;20006;-81
2022/09/17 10:47:25;;;;;;;12.45;2.40;;;17.30;98.60;;;;;;7395003;19;19918;-81
2022/09/17 10:50:01;;;;;;;15.25;2.42;;;16.90;99.90;;;;;;7394860;19;20491;-81
2022/09/17 10:52:31;;;;;;;11.18;2.35;;;16.50;99.90;;;;;;7395511;19;20479;-81
2022/09/17 10:55:00;;;;;;;11.55;1.65;;;15.90;99.90;;;;;;7393062;19;20021;-80
2022/09/17 10:57:36;;;;;;;10.70;1.70;;;15.80;99.90;;;;;;7394964;19;20018;-80
2022/09/17 11:00:22;;;;;;;7.63;1.80;;;15.70;99.90;;;;;;7394701;19;20036;-80
2022/09/17 11:03:12;;;;;;;13.68;2.60;;;15.70;99.90;;;;;;7395043;19;20073;-81
2022/09/17 11:05:51;;;;;;;11.23;2.08;;;15.80;99.90;;;;;;7394481;19;20014;-80
2022/09/17 11:08:39;;;;;;;10.18;2.13;;;16.10;99.90;;;;;;7394373;19;20017;-80
2022/09/17 11:11:26;;;;;;;13.93;1.92;;;16.30;99.90;;;;;;7393252;19;20078;-81
2022/09/17 11:13:59;;;;;;;13.65;1.88;;;16.50;99.90;;;;;;7394746;19;20018;-81
2022/09/17 11:16:34;;;;;;;8.02;1.58;;;16.70;99.90;;;;;;7392812;19;20014;-80
2022/09/17 11:19:44;;;;;;;14.68;2.08;;;17.00;99.90;;;;;;7393395;19;20018;-80
2022/09/17 11:22:23;;;;;;;10.07;1.60;;;17.10;99.90;;;;;;7392813;19;20031;-81
2022/09/17 11:25:01;;;;;;;10.50;1.88;;;17.20;99.90;;;;;;7392769;19;20038;-80
2022/09/17 11:27:34;;;;;;;13.85;1.92;;;17.20;99.40;;;;;;7394121;19;20014;-81
2022/09/17 11:30:14;;;;;;;11.20;1.95;;;17.30;99.90;;;;;;7395371;19;20007;-80
2022/09/17 11:33:01;;;;;;;11.45;2.13;;;17.50;99.30;;;;;;7392190;19;20074;-81
2022/09/17 11:35:32;;;;;;;11.65;1.73;;;17.20;97.90;;;;;;7391222;19;20435;-80
2022/09/17 11:38:05;;;;;;;10.77;1.83;;;17.00;98.80;;;;;;7393582;19;20090;-80
2022/09/17 11:40:45;;;;;;;12.65;2.13;;;17.00;98.80;;;;;;7393095;19;20070;-81
2022/09/17 11:43:27;;;;;;;11.30;2.38;;;17.20;99.30;;;;;;7393897;19;20014;-81
2022/09/17 11:46:20;;;;;;;12.07;1.85;;;17.30;99.70;;;;;;7392279;19;20010;-81
2022/09/17 11:49:01;;;;;;;9.00;1.90;;;17.40;98.80;;;;;;7393263;19;20034;-80
2022/09/17 11:52:00;;;;;;;11.57;1.77;;;17.40;98.30;;;;;;7393725;19;20021;-80
2022/09/17 11:54:38;;;;;;;13.52;2.03;;;17.40;97.90;;;;;;7392785;19;20010;-80
2022/09/17 11:57:18;;;;;;;8.90;1.80;;;17.40;96.50;;;;;;7391425;19;20998;-80
2022/09/17 12:00:04;;;;;;;9.75;1.80;;;17.40;97.10;;;;;;7392878;19;20010;-81
2022/09/17 12:02:50;;;;;;;13.70;2.30;;;17.50;97.10;;;;;;7390080;19;20026;-80
2022/09/17 12:05:16;;;;;;;13.30;2.25;;;17.00;97.60;;;;;;7392432;19;20022;-81
2022/09/17 12:07:59;;;;;;;12.15;1.98;;;16.70;97.90;;;;;;7393279;19;20365;-80
2022/09/17 12:10:49;;;;;;;11.23;2.17;;;16.30;98.00;;;;;;7393261;19;20014;-81
2022/09/17 12:13:25;;;;;;;14.15;2.00;;;16.20;98.40;;;;;;7392911;19;20022;-80
2022/09/17 12:16:07;;;;;;;8.18;1.58;;;16.40;97.90;;;;;;7390172;19;20384;-80
2022/09/17 12:18:46;;;;;;;13.55;2.00;;;16.40;97.70;;;;;;7392157;19;20010;-80
2022/09/17 12:21:18;;;;;;;9.35;1.60;;;16.50;97.40;;;;;;7388967;19;20043;-81
2022/09/17 12:23:53;;;;;;;13.63;1.95;;;16.60;97.20;;;;;;7392601;19;20456;-81
2022/09/17 12:26:28;;;;;;;12.55;2.08;;;16.80;97.20;;;;;;7392046;19;20091;-79
2022/09/17 12:28:59;;;;;;;11.65;1.80;;;16.90;96.70;;;;;;7392955;19;20389;-81
2022/09/17 12:31:41;;;;;;;10.45;2.03;;;17.00;96.40;;;;;;7391954;19;20007;-81
2022/09/17 12:34:30;;;;;;;15.10;2.03;;;17.00;96.90;;;;;;7390702;19;20014;-81
2022/09/17 12:37:13;;;;;;;14.32;1.75;;;17.00;97.80;;;;;;7392522;19;20010;-81
2022/09/17 12:39:53;;;;;;;;;;;17.00;98.70;;;;;;7393241;19;20014;-81
2022/09/17 12:42:43;;;;;;;12.57;1.95;;;17.00;98.90;;;;;;7390035;19;20388;-80
2022/09/17 12:45:47;;;;;;;12.23;2.17;;;17.10;99.00;;;;;;7390811;19;20015;-81
2022/09/17 12:48:38;;;;;;;9.68;1.77;;;17.40;98.90;;;;;;7399608;19;20011;-80
2022/09/17 12:51:19;;;;;;;13.07;2.20;;;17.30;98.90;;;;;;7398089;19;20010;-80
2022/09/17 12:54:09;;;;;;;12.02;2.08;;;17.20;98.50;;;;;;7398636;19;20014;-79
2022/09/17 12:57:10;;;;;;;11.25;2.00;;;17.30;99.20;;;;;;7397372;19;20006;-80
2022/09/17 12:59:45;;;;;;;9.95;2.00;;;17.10;99.40;;;;;;7398749;19;20014;-81
2022/09/17 13:02:25;;;;;;;13.68;2.50;;;16.90;99.50;;;;;;7396928;19;20025;-81
2022/09/17 13:05:18;;;;;;;14.10;2.83;;;16.60;99.90;;;;;;7399019;19;20014;-80
2022/09/17 13:08:00;;;;;;;10.93;2.03;;;16.40;99.50;;;;;;7398732;19;20014;-80